<?xml version="1.0" encoding="UTF-8" standalone="no" ?>
<gpx xmlns="http://www.topografix.com/GPX/1/1" xmlns:xsi="http://www.w3.org/2001/XMLSchema-instance" xsi:schemaLocation="http://www.topografix.com/GPX/1/1 http://www.topografix.com/GPX/1/1/gpx.xsd" version="1.1" creator="VisuGPX - https://www.visugpx.com">
  <metadata>
    <name>112011</name>
    <desc><![CDATA[très agréable sortie 24.5]]></desc>
  </metadata>
  <trk>
    <name><![CDATA[ACTIVE LOG104051]]></name>
    <trkseg>
      <trkpt lat="48.47324" lon="-4.63865">
        <ele>78.329</ele>
        <time>2011-04-07T08:40:51Z</time>
      </trkpt>
      <trkpt lat="48.47322" lon="-4.63843">
        <ele>77.726</ele>
        <time>2011-04-07T08:40:58Z</time>
      </trkpt>
      <trkpt lat="48.47321" lon="-4.63842">
        <ele>77.66</ele>
        <time>2011-04-07T08:41:01Z</time>
      </trkpt>
      <trkpt lat="48.47319" lon="-4.63799">
        <ele>77.565</ele>
        <time>2011-04-07T08:41:09Z</time>
      </trkpt>
      <trkpt lat="48.47296" lon="-4.63757">
        <ele>76.171</ele>
        <time>2011-04-07T08:41:17Z</time>
      </trkpt>
      <trkpt lat="48.47229" lon="-4.63699">
        <ele>79.408</ele>
        <time>2011-04-07T08:41:32Z</time>
      </trkpt>
      <trkpt lat="48.47171" lon="-4.63672">
        <ele>82.835</ele>
        <time>2011-04-07T08:41:44Z</time>
      </trkpt>
      <trkpt lat="48.47153" lon="-4.63663">
        <ele>83.969</ele>
        <time>2011-04-07T08:41:48Z</time>
      </trkpt>
      <trkpt lat="48.47135" lon="-4.63641">
        <ele>84.65</ele>
        <time>2011-04-07T08:41:53Z</time>
      </trkpt>
      <trkpt lat="48.47121" lon="-4.63607">
        <ele>84.88</ele>
        <time>2011-04-07T08:41:58Z</time>
      </trkpt>
      <trkpt lat="48.47099" lon="-4.63423">
        <ele>86.386</ele>
        <time>2011-04-07T08:42:20Z</time>
      </trkpt>
      <trkpt lat="48.47093" lon="-4.63279">
        <ele>89.501</ele>
        <time>2011-04-07T08:42:38Z</time>
      </trkpt>
      <trkpt lat="48.47099" lon="-4.63134">
        <ele>92.293</ele>
        <time>2011-04-07T08:42:57Z</time>
      </trkpt>
      <trkpt lat="48.47106" lon="-4.62973">
        <ele>95.314</ele>
        <time>2011-04-07T08:43:19Z</time>
      </trkpt>
      <trkpt lat="48.4712" lon="-4.62801">
        <ele>96.395</ele>
        <time>2011-04-07T08:43:42Z</time>
      </trkpt>
      <trkpt lat="48.47167" lon="-4.62685">
        <ele>95.931</ele>
        <time>2011-04-07T08:43:58Z</time>
      </trkpt>
      <trkpt lat="48.4717" lon="-4.6267">
        <ele>95.855</ele>
        <time>2011-04-07T08:44:00Z</time>
      </trkpt>
      <trkpt lat="48.47172" lon="-4.62649">
        <ele>96.126</ele>
        <time>2011-04-07T08:44:05Z</time>
      </trkpt>
      <trkpt lat="48.47147" lon="-4.62451">
        <ele>94.28</ele>
        <time>2011-04-07T08:44:25Z</time>
      </trkpt>
      <trkpt lat="48.47112" lon="-4.62204">
        <ele>91.928</ele>
        <time>2011-04-07T08:44:49Z</time>
      </trkpt>
      <trkpt lat="48.471" lon="-4.62011">
        <ele>92.306</ele>
        <time>2011-04-07T08:45:09Z</time>
      </trkpt>
      <trkpt lat="48.47086" lon="-4.61833">
        <ele>90.789</ele>
        <time>2011-04-07T08:45:27Z</time>
      </trkpt>
      <trkpt lat="48.47109" lon="-4.61718">
        <ele>89.371</ele>
        <time>2011-04-07T08:45:39Z</time>
      </trkpt>
      <trkpt lat="48.47117" lon="-4.617">
        <ele>88.39</ele>
        <time>2011-04-07T08:45:41Z</time>
      </trkpt>
      <trkpt lat="48.4721" lon="-4.61555">
        <ele>87.493</ele>
        <time>2011-04-07T08:46:00Z</time>
      </trkpt>
      <trkpt lat="48.47264" lon="-4.61414">
        <ele>87.492</ele>
        <time>2011-04-07T08:46:16Z</time>
      </trkpt>
      <trkpt lat="48.47254" lon="-4.61294">
        <ele>90.12</ele>
        <time>2011-04-07T08:46:29Z</time>
      </trkpt>
      <trkpt lat="48.47241" lon="-4.61151">
        <ele>90.997</ele>
        <time>2011-04-07T08:46:47Z</time>
      </trkpt>
      <trkpt lat="48.47214" lon="-4.60958">
        <ele>87.895</ele>
        <time>2011-04-07T08:47:06Z</time>
      </trkpt>
      <trkpt lat="48.47198" lon="-4.60857">
        <ele>85.955</ele>
        <time>2011-04-07T08:47:15Z</time>
      </trkpt>
      <trkpt lat="48.47144" lon="-4.60714">
        <ele>87.94</ele>
        <time>2011-04-07T08:47:31Z</time>
      </trkpt>
      <trkpt lat="48.47098" lon="-4.60603">
        <ele>90.948</ele>
        <time>2011-04-07T08:47:47Z</time>
      </trkpt>
      <trkpt lat="48.47067" lon="-4.60479">
        <ele>92.885</ele>
        <time>2011-04-07T08:48:04Z</time>
      </trkpt>
      <trkpt lat="48.47065" lon="-4.60422">
        <ele>92.72</ele>
        <time>2011-04-07T08:48:11Z</time>
      </trkpt>
      <trkpt lat="48.47065" lon="-4.60285">
        <ele>89.758</ele>
        <time>2011-04-07T08:48:26Z</time>
      </trkpt>
      <trkpt lat="48.47065" lon="-4.60273">
        <ele>89.598</ele>
        <time>2011-04-07T08:48:27Z</time>
      </trkpt>
      <trkpt lat="48.4704" lon="-4.60112">
        <ele>87.901</ele>
        <time>2011-04-07T08:48:42Z</time>
      </trkpt>
      <trkpt lat="48.47014" lon="-4.59868">
        <ele>86.146</ele>
        <time>2011-04-07T08:49:07Z</time>
      </trkpt>
      <trkpt lat="48.46968" lon="-4.59667">
        <ele>85.113</ele>
        <time>2011-04-07T08:49:25Z</time>
      </trkpt>
      <trkpt lat="48.46875" lon="-4.5946">
        <ele>83.797</ele>
        <time>2011-04-07T08:49:49Z</time>
      </trkpt>
      <trkpt lat="48.46774" lon="-4.59241">
        <ele>85.018</ele>
        <time>2011-04-07T08:50:17Z</time>
      </trkpt>
      <trkpt lat="48.4667" lon="-4.59058">
        <ele>84.993</ele>
        <time>2011-04-07T08:50:43Z</time>
      </trkpt>
      <trkpt lat="48.46568" lon="-4.58888">
        <ele>83.952</ele>
        <time>2011-04-07T08:51:05Z</time>
      </trkpt>
      <trkpt lat="48.4646" lon="-4.58707">
        <ele>85.57</ele>
        <time>2011-04-07T08:51:31Z</time>
      </trkpt>
      <trkpt lat="48.46358" lon="-4.58537">
        <ele>85.058</ele>
        <time>2011-04-07T08:51:55Z</time>
      </trkpt>
      <trkpt lat="48.46267" lon="-4.58396">
        <ele>85.329</ele>
        <time>2011-04-07T08:52:15Z</time>
      </trkpt>
      <trkpt lat="48.46177" lon="-4.58272">
        <ele>88.157</ele>
        <time>2011-04-07T08:52:37Z</time>
      </trkpt>
      <trkpt lat="48.46161" lon="-4.5825">
        <ele>88.373</ele>
        <time>2011-04-07T08:52:41Z</time>
      </trkpt>
      <trkpt lat="48.4615" lon="-4.58211">
        <ele>88.201</ele>
        <time>2011-04-07T08:52:46Z</time>
      </trkpt>
      <trkpt lat="48.46157" lon="-4.58045">
        <ele>85.085</ele>
        <time>2011-04-07T08:53:04Z</time>
      </trkpt>
      <trkpt lat="48.46183" lon="-4.57884">
        <ele>85.231</ele>
        <time>2011-04-07T08:53:21Z</time>
      </trkpt>
      <trkpt lat="48.46182" lon="-4.57856">
        <ele>85.784</ele>
        <time>2011-04-07T08:53:25Z</time>
      </trkpt>
      <trkpt lat="48.46181" lon="-4.57847">
        <ele>86.122</ele>
        <time>2011-04-07T08:53:29Z</time>
      </trkpt>
      <trkpt lat="48.46228" lon="-4.57727">
        <ele>86.319</ele>
        <time>2011-04-07T08:53:45Z</time>
      </trkpt>
      <trkpt lat="48.46248" lon="-4.57681">
        <ele>86.048</ele>
        <time>2011-04-07T08:53:51Z</time>
      </trkpt>
      <trkpt lat="48.46302" lon="-4.57552">
        <ele>83.565</ele>
        <time>2011-04-07T08:54:06Z</time>
      </trkpt>
      <trkpt lat="48.46359" lon="-4.57417">
        <ele>83.752</ele>
        <time>2011-04-07T08:54:21Z</time>
      </trkpt>
      <trkpt lat="48.46437" lon="-4.57262">
        <ele>85.184</ele>
        <time>2011-04-07T08:54:40Z</time>
      </trkpt>
      <trkpt lat="48.4647" lon="-4.57211">
        <ele>85.56</ele>
        <time>2011-04-07T08:54:47Z</time>
      </trkpt>
      <trkpt lat="48.46488" lon="-4.57158">
        <ele>86.325</ele>
        <time>2011-04-07T08:54:53Z</time>
      </trkpt>
      <trkpt lat="48.46519" lon="-4.56962">
        <ele>87.258</ele>
        <time>2011-04-07T08:55:14Z</time>
      </trkpt>
      <trkpt lat="48.46523" lon="-4.56939">
        <ele>87.395</ele>
        <time>2011-04-07T08:55:17Z</time>
      </trkpt>
      <trkpt lat="48.46569" lon="-4.56842">
        <ele>85.362</ele>
        <time>2011-04-07T08:55:30Z</time>
      </trkpt>
      <trkpt lat="48.4662" lon="-4.56713">
        <ele>83.726</ele>
        <time>2011-04-07T08:55:44Z</time>
      </trkpt>
      <trkpt lat="48.46654" lon="-4.56631">
        <ele>83.143</ele>
        <time>2011-04-07T08:55:53Z</time>
      </trkpt>
      <trkpt lat="48.46693" lon="-4.56564">
        <ele>82.285</ele>
        <time>2011-04-07T08:56:01Z</time>
      </trkpt>
      <trkpt lat="48.46703" lon="-4.56514">
        <ele>81.932</ele>
        <time>2011-04-07T08:56:06Z</time>
      </trkpt>
      <trkpt lat="48.46705" lon="-4.56503">
        <ele>81.375</ele>
        <time>2011-04-07T08:56:08Z</time>
      </trkpt>
      <trkpt lat="48.4673" lon="-4.56468">
        <ele>81.439</ele>
        <time>2011-04-07T08:56:12Z</time>
      </trkpt>
      <trkpt lat="48.46748" lon="-4.56449">
        <ele>81.214</ele>
        <time>2011-04-07T08:56:15Z</time>
      </trkpt>
      <trkpt lat="48.4677" lon="-4.56421">
        <ele>81.3</ele>
        <time>2011-04-07T08:56:19Z</time>
      </trkpt>
      <trkpt lat="48.46839" lon="-4.56326">
        <ele>80.585</ele>
        <time>2011-04-07T08:56:32Z</time>
      </trkpt>
      <trkpt lat="48.46878" lon="-4.56249">
        <ele>79.069</ele>
        <time>2011-04-07T08:56:43Z</time>
      </trkpt>
      <trkpt lat="48.4688" lon="-4.56242">
        <ele>78.507</ele>
        <time>2011-04-07T08:56:44Z</time>
      </trkpt>
      <trkpt lat="48.46898" lon="-4.56182">
        <ele>75.276</ele>
        <time>2011-04-07T08:56:52Z</time>
      </trkpt>
      <trkpt lat="48.46914" lon="-4.56122">
        <ele>73.796</ele>
        <time>2011-04-07T08:56:56Z</time>
      </trkpt>
      <trkpt lat="48.46948" lon="-4.55995">
        <ele>70.573</ele>
        <time>2011-04-07T08:57:07Z</time>
      </trkpt>
      <trkpt lat="48.46951" lon="-4.55983">
        <ele>70.324</ele>
        <time>2011-04-07T08:57:08Z</time>
      </trkpt>
      <trkpt lat="48.46993" lon="-4.5583">
        <ele>73.424</ele>
        <time>2011-04-07T08:57:22Z</time>
      </trkpt>
      <trkpt lat="48.46998" lon="-4.55803">
        <ele>74.836</ele>
        <time>2011-04-07T08:57:25Z</time>
      </trkpt>
      <trkpt lat="48.47005" lon="-4.55728">
        <ele>78.783</ele>
        <time>2011-04-07T08:57:34Z</time>
      </trkpt>
      <trkpt lat="48.47005" lon="-4.55635">
        <ele>81.859</ele>
        <time>2011-04-07T08:57:45Z</time>
      </trkpt>
      <trkpt lat="48.47005" lon="-4.55628">
        <ele>82.509</ele>
        <time>2011-04-07T08:57:48Z</time>
      </trkpt>
      <trkpt lat="48.47035" lon="-4.55448">
        <ele>81.088</ele>
        <time>2011-04-07T08:58:06Z</time>
      </trkpt>
      <trkpt lat="48.4707" lon="-4.55229">
        <ele>84.228</ele>
        <time>2011-04-07T08:58:29Z</time>
      </trkpt>
      <trkpt lat="48.47095" lon="-4.55055">
        <ele>87.539</ele>
        <time>2011-04-07T08:58:48Z</time>
      </trkpt>
      <trkpt lat="48.47093" lon="-4.5491">
        <ele>87.491</ele>
        <time>2011-04-07T08:59:03Z</time>
      </trkpt>
      <trkpt lat="48.47102" lon="-4.54724">
        <ele>86.773</ele>
        <time>2011-04-07T08:59:21Z</time>
      </trkpt>
      <trkpt lat="48.47124" lon="-4.54608">
        <ele>86.583</ele>
        <time>2011-04-07T08:59:32Z</time>
      </trkpt>
      <trkpt lat="48.47149" lon="-4.54568">
        <ele>86.71</ele>
        <time>2011-04-07T08:59:37Z</time>
      </trkpt>
      <trkpt lat="48.47247" lon="-4.54405">
        <ele>85.735</ele>
        <time>2011-04-07T08:59:57Z</time>
      </trkpt>
      <trkpt lat="48.47274" lon="-4.54252">
        <ele>84.656</ele>
        <time>2011-04-07T09:00:11Z</time>
      </trkpt>
      <trkpt lat="48.47308" lon="-4.54106">
        <ele>83.251</ele>
        <time>2011-04-07T09:00:25Z</time>
      </trkpt>
      <trkpt lat="48.47401" lon="-4.53891">
        <ele>82.832</ele>
        <time>2011-04-07T09:00:48Z</time>
      </trkpt>
      <trkpt lat="48.47443" lon="-4.5375">
        <ele>83.357</ele>
        <time>2011-04-07T09:01:02Z</time>
      </trkpt>
      <trkpt lat="48.47447" lon="-4.53697">
        <ele>82.271</ele>
        <time>2011-04-07T09:01:09Z</time>
      </trkpt>
      <trkpt lat="48.47436" lon="-4.5364">
        <ele>82.479</ele>
        <time>2011-04-07T09:01:12Z</time>
      </trkpt>
      <trkpt lat="48.47438" lon="-4.53571">
        <ele>83.134</ele>
        <time>2011-04-07T09:01:18Z</time>
      </trkpt>
      <trkpt lat="48.47517" lon="-4.53403">
        <ele>85.487</ele>
        <time>2011-04-07T09:01:37Z</time>
      </trkpt>
      <trkpt lat="48.47575" lon="-4.53265">
        <ele>83.733</ele>
        <time>2011-04-07T09:01:52Z</time>
      </trkpt>
      <trkpt lat="48.47641" lon="-4.53121">
        <ele>80.588</ele>
        <time>2011-04-07T09:02:06Z</time>
      </trkpt>
      <trkpt lat="48.47718" lon="-4.52859">
        <ele>79.456</ele>
        <time>2011-04-07T09:02:29Z</time>
      </trkpt>
      <trkpt lat="48.47734" lon="-4.52825">
        <ele>80.514</ele>
        <time>2011-04-07T09:02:33Z</time>
      </trkpt>
      <trkpt lat="48.47745" lon="-4.52802">
        <ele>82.115</ele>
        <time>2011-04-07T09:02:42Z</time>
      </trkpt>
      <trkpt lat="48.47745" lon="-4.52802">
        <ele>81.932</ele>
        <time>2011-04-07T09:02:53Z</time>
      </trkpt>
      <trkpt lat="48.47708" lon="-4.52777">
        <ele>79.225</ele>
        <time>2011-04-07T09:03:03Z</time>
      </trkpt>
      <trkpt lat="48.47681" lon="-4.52764">
        <ele>77.263</ele>
        <time>2011-04-07T09:03:08Z</time>
      </trkpt>
      <trkpt lat="48.47654" lon="-4.52746">
        <ele>73.198</ele>
        <time>2011-04-07T09:03:12Z</time>
      </trkpt>
      <trkpt lat="48.47607" lon="-4.52713">
        <ele>69.131</ele>
        <time>2011-04-07T09:03:18Z</time>
      </trkpt>
      <trkpt lat="48.47574" lon="-4.52684">
        <ele>67.223</ele>
        <time>2011-04-07T09:03:22Z</time>
      </trkpt>
      <trkpt lat="48.47482" lon="-4.52609">
        <ele>70.179</ele>
        <time>2011-04-07T09:03:35Z</time>
      </trkpt>
      <trkpt lat="48.47426" lon="-4.52572">
        <ele>73.33</ele>
        <time>2011-04-07T09:03:46Z</time>
      </trkpt>
      <trkpt lat="48.47314" lon="-4.52519">
        <ele>76.453</ele>
        <time>2011-04-07T09:04:08Z</time>
      </trkpt>
      <trkpt lat="48.472" lon="-4.52443">
        <ele>79.626</ele>
        <time>2011-04-07T09:04:32Z</time>
      </trkpt>
      <trkpt lat="48.47126" lon="-4.52371">
        <ele>82.722</ele>
        <time>2011-04-07T09:04:50Z</time>
      </trkpt>
      <trkpt lat="48.4707" lon="-4.52313">
        <ele>85.804</ele>
        <time>2011-04-07T09:05:04Z</time>
      </trkpt>
      <trkpt lat="48.47001" lon="-4.52243">
        <ele>89.015</ele>
        <time>2011-04-07T09:05:21Z</time>
      </trkpt>
      <trkpt lat="48.46949" lon="-4.52185">
        <ele>92.878</ele>
        <time>2011-04-07T09:05:34Z</time>
      </trkpt>
      <trkpt lat="48.46946" lon="-4.52179">
        <ele>92.294</ele>
        <time>2011-04-07T09:05:35Z</time>
      </trkpt>
      <trkpt lat="48.46898" lon="-4.52091">
        <ele>93.362</ele>
        <time>2011-04-07T09:05:52Z</time>
      </trkpt>
      <trkpt lat="48.46834" lon="-4.51956">
        <ele>92.976</ele>
        <time>2011-04-07T09:06:14Z</time>
      </trkpt>
      <trkpt lat="48.46744" lon="-4.5181">
        <ele>91.244</ele>
        <time>2011-04-07T09:06:34Z</time>
      </trkpt>
      <trkpt lat="48.4663" lon="-4.5169">
        <ele>88.202</ele>
        <time>2011-04-07T09:06:52Z</time>
      </trkpt>
      <trkpt lat="48.46503" lon="-4.51538">
        <ele>85.529</ele>
        <time>2011-04-07T09:07:12Z</time>
      </trkpt>
      <trkpt lat="48.4635" lon="-4.5137">
        <ele>83.18</ele>
        <time>2011-04-07T09:07:34Z</time>
      </trkpt>
      <trkpt lat="48.46233" lon="-4.51268">
        <ele>85.206</ele>
        <time>2011-04-07T09:07:52Z</time>
      </trkpt>
      <trkpt lat="48.46078" lon="-4.51225">
        <ele>85.263</ele>
        <time>2011-04-07T09:08:13Z</time>
      </trkpt>
      <trkpt lat="48.45959" lon="-4.51235">
        <ele>88.528</ele>
        <time>2011-04-07T09:08:30Z</time>
      </trkpt>
      <trkpt lat="48.45787" lon="-4.51236">
        <ele>91.737</ele>
        <time>2011-04-07T09:08:57Z</time>
      </trkpt>
      <trkpt lat="48.45592" lon="-4.51223">
        <ele>91.678</ele>
        <time>2011-04-07T09:09:27Z</time>
      </trkpt>
      <trkpt lat="48.45371" lon="-4.5121">
        <ele>89.561</ele>
        <time>2011-04-07T09:09:57Z</time>
      </trkpt>
      <trkpt lat="48.45189" lon="-4.51229">
        <ele>89.072</ele>
        <time>2011-04-07T09:10:20Z</time>
      </trkpt>
      <trkpt lat="48.45038" lon="-4.51224">
        <ele>90.01</ele>
        <time>2011-04-07T09:10:40Z</time>
      </trkpt>
      <trkpt lat="48.44941" lon="-4.51176">
        <ele>91.02</ele>
        <time>2011-04-07T09:10:54Z</time>
      </trkpt>
      <trkpt lat="48.44936" lon="-4.51173">
        <ele>91.42</ele>
        <time>2011-04-07T09:10:57Z</time>
      </trkpt>
      <trkpt lat="48.44906" lon="-4.51182">
        <ele>91.367</ele>
        <time>2011-04-07T09:11:02Z</time>
      </trkpt>
      <trkpt lat="48.44868" lon="-4.51165">
        <ele>90.933</ele>
        <time>2011-04-07T09:11:07Z</time>
      </trkpt>
      <trkpt lat="48.44852" lon="-4.51137">
        <ele>90.006</ele>
        <time>2011-04-07T09:11:10Z</time>
      </trkpt>
      <trkpt lat="48.44768" lon="-4.51059">
        <ele>86.759</ele>
        <time>2011-04-07T09:11:24Z</time>
      </trkpt>
      <trkpt lat="48.4466" lon="-4.51037">
        <ele>84.191</ele>
        <time>2011-04-07T09:11:38Z</time>
      </trkpt>
      <trkpt lat="48.44532" lon="-4.51063">
        <ele>83.568</ele>
        <time>2011-04-07T09:11:55Z</time>
      </trkpt>
      <trkpt lat="48.44437" lon="-4.51073">
        <ele>80.117</ele>
        <time>2011-04-07T09:12:07Z</time>
      </trkpt>
      <trkpt lat="48.44282" lon="-4.51086">
        <ele>80.634</ele>
        <time>2011-04-07T09:12:27Z</time>
      </trkpt>
      <trkpt lat="48.44174" lon="-4.51074">
        <ele>77.563</ele>
        <time>2011-04-07T09:12:41Z</time>
      </trkpt>
      <trkpt lat="48.44131" lon="-4.51067">
        <ele>75.536</ele>
        <time>2011-04-07T09:12:46Z</time>
      </trkpt>
      <trkpt lat="48.44095" lon="-4.51062">
        <ele>72.049</ele>
        <time>2011-04-07T09:12:52Z</time>
      </trkpt>
      <trkpt lat="48.44054" lon="-4.51055">
        <ele>70.768</ele>
        <time>2011-04-07T09:12:54Z</time>
      </trkpt>
      <trkpt lat="48.44003" lon="-4.51047">
        <ele>67.753</ele>
        <time>2011-04-07T09:12:59Z</time>
      </trkpt>
      <trkpt lat="48.43992" lon="-4.51045">
        <ele>67.602</ele>
        <time>2011-04-07T09:13:00Z</time>
      </trkpt>
      <trkpt lat="48.43961" lon="-4.51037">
        <ele>65.438</ele>
        <time>2011-04-07T09:13:03Z</time>
      </trkpt>
      <trkpt lat="48.43846" lon="-4.50987">
        <ele>67.854</ele>
        <time>2011-04-07T09:13:16Z</time>
      </trkpt>
      <trkpt lat="48.43766" lon="-4.50925">
        <ele>70.86</ele>
        <time>2011-04-07T09:13:28Z</time>
      </trkpt>
      <trkpt lat="48.43755" lon="-4.50912">
        <ele>71.732</ele>
        <time>2011-04-07T09:13:30Z</time>
      </trkpt>
      <trkpt lat="48.43685" lon="-4.50811">
        <ele>73.042</ele>
        <time>2011-04-07T09:13:44Z</time>
      </trkpt>
      <trkpt lat="48.43651" lon="-4.50828">
        <ele>73.618</ele>
        <time>2011-04-07T09:13:50Z</time>
      </trkpt>
      <trkpt lat="48.43576" lon="-4.50926">
        <ele>72.948</ele>
        <time>2011-04-07T09:14:06Z</time>
      </trkpt>
      <trkpt lat="48.4349" lon="-4.50968">
        <ele>69.499</ele>
        <time>2011-04-07T09:14:19Z</time>
      </trkpt>
      <trkpt lat="48.4338" lon="-4.50992">
        <ele>66.334</ele>
        <time>2011-04-07T09:14:34Z</time>
      </trkpt>
      <trkpt lat="48.43347" lon="-4.50999">
        <ele>64.466</ele>
        <time>2011-04-07T09:14:38Z</time>
      </trkpt>
      <trkpt lat="48.43311" lon="-4.51007">
        <ele>61.009</ele>
        <time>2011-04-07T09:14:42Z</time>
      </trkpt>
      <trkpt lat="48.43302" lon="-4.5101">
        <ele>61.004</ele>
        <time>2011-04-07T09:14:43Z</time>
      </trkpt>
      <trkpt lat="48.4319" lon="-4.51057">
        <ele>58.479</ele>
        <time>2011-04-07T09:14:56Z</time>
      </trkpt>
      <trkpt lat="48.43183" lon="-4.51061">
        <ele>58.634</ele>
        <time>2011-04-07T09:14:57Z</time>
      </trkpt>
      <trkpt lat="48.43173" lon="-4.51066">
        <ele>58.428</ele>
        <time>2011-04-07T09:15:01Z</time>
      </trkpt>
      <trkpt lat="48.43121" lon="-4.511">
        <ele>57.372</ele>
        <time>2011-04-07T09:15:07Z</time>
      </trkpt>
      <trkpt lat="48.43121" lon="-4.511">
        <ele>57.684</ele>
        <time>2011-04-07T09:15:09Z</time>
      </trkpt>
      <trkpt lat="48.43087" lon="-4.5109">
        <ele>57.387</ele>
        <time>2011-04-07T09:15:14Z</time>
      </trkpt>
      <trkpt lat="48.43068" lon="-4.51079">
        <ele>57.279</ele>
        <time>2011-04-07T09:15:17Z</time>
      </trkpt>
      <trkpt lat="48.43032" lon="-4.51052">
        <ele>55.99</ele>
        <time>2011-04-07T09:15:23Z</time>
      </trkpt>
      <trkpt lat="48.43009" lon="-4.51014">
        <ele>55.093</ele>
        <time>2011-04-07T09:15:28Z</time>
      </trkpt>
      <trkpt lat="48.42977" lon="-4.50954">
        <ele>53.297</ele>
        <time>2011-04-07T09:15:35Z</time>
      </trkpt>
      <trkpt lat="48.42927" lon="-4.50835">
        <ele>50.301</ele>
        <time>2011-04-07T09:15:48Z</time>
      </trkpt>
      <trkpt lat="48.42877" lon="-4.50656">
        <ele>47.886</ele>
        <time>2011-04-07T09:16:06Z</time>
      </trkpt>
      <trkpt lat="48.42869" lon="-4.50639">
        <ele>47.347</ele>
        <time>2011-04-07T09:16:08Z</time>
      </trkpt>
      <trkpt lat="48.42792" lon="-4.50568">
        <ele>47.636</ele>
        <time>2011-04-07T09:16:21Z</time>
      </trkpt>
      <trkpt lat="48.42769" lon="-4.5056">
        <ele>47.849</ele>
        <time>2011-04-07T09:16:25Z</time>
      </trkpt>
      <trkpt lat="48.42684" lon="-4.50582">
        <ele>49.29</ele>
        <time>2011-04-07T09:16:39Z</time>
      </trkpt>
      <trkpt lat="48.42548" lon="-4.50628">
        <ele>50.783</ele>
        <time>2011-04-07T09:17:00Z</time>
      </trkpt>
      <trkpt lat="48.42469" lon="-4.50604">
        <ele>53.218</ele>
        <time>2011-04-07T09:17:14Z</time>
      </trkpt>
      <trkpt lat="48.4238" lon="-4.50551">
        <ele>55.869</ele>
        <time>2011-04-07T09:17:33Z</time>
      </trkpt>
      <trkpt lat="48.42358" lon="-4.50536">
        <ele>57.71</ele>
        <time>2011-04-07T09:17:38Z</time>
      </trkpt>
      <trkpt lat="48.42349" lon="-4.5053">
        <ele>59.04</ele>
        <time>2011-04-07T09:17:42Z</time>
      </trkpt>
      <trkpt lat="48.4231" lon="-4.50519">
        <ele>61.067</ele>
        <time>2011-04-07T09:17:52Z</time>
      </trkpt>
      <trkpt lat="48.4231" lon="-4.50508">
        <ele>60.823</ele>
        <time>2011-04-07T09:17:54Z</time>
      </trkpt>
      <trkpt lat="48.42247" lon="-4.50474">
        <ele>60.852</ele>
        <time>2011-04-07T09:18:09Z</time>
      </trkpt>
      <trkpt lat="48.4218" lon="-4.50419">
        <ele>61.528</ele>
        <time>2011-04-07T09:18:24Z</time>
      </trkpt>
      <trkpt lat="48.4213" lon="-4.50319">
        <ele>62.351</ele>
        <time>2011-04-07T09:18:38Z</time>
      </trkpt>
      <trkpt lat="48.42112" lon="-4.50263">
        <ele>65.061</ele>
        <time>2011-04-07T09:18:48Z</time>
      </trkpt>
      <trkpt lat="48.42085" lon="-4.50135">
        <ele>67.638</ele>
        <time>2011-04-07T09:19:05Z</time>
      </trkpt>
      <trkpt lat="48.42029" lon="-4.49998">
        <ele>69.58</ele>
        <time>2011-04-07T09:19:26Z</time>
      </trkpt>
      <trkpt lat="48.41951" lon="-4.49901">
        <ele>69.107</ele>
        <time>2011-04-07T09:19:44Z</time>
      </trkpt>
      <trkpt lat="48.41862" lon="-4.49815">
        <ele>67.55</ele>
        <time>2011-04-07T09:20:02Z</time>
      </trkpt>
      <trkpt lat="48.41849" lon="-4.49803">
        <ele>68.294</ele>
        <time>2011-04-07T09:20:06Z</time>
      </trkpt>
      <trkpt lat="48.41852" lon="-4.49804">
        <ele>68.539</ele>
        <time>2011-04-07T09:20:12Z</time>
      </trkpt>
      <trkpt lat="48.41839" lon="-4.49795">
        <ele>68.411</ele>
        <time>2011-04-07T09:20:21Z</time>
      </trkpt>
      <trkpt lat="48.41839" lon="-4.49795">
        <ele>68.331</ele>
        <time>2011-04-07T09:20:24Z</time>
      </trkpt>
      <trkpt lat="48.41832" lon="-4.4979">
        <ele>67.703</ele>
        <time>2011-04-07T09:20:30Z</time>
      </trkpt>
      <trkpt lat="48.41781" lon="-4.49749">
        <ele>65.978</ele>
        <time>2011-04-07T09:20:43Z</time>
      </trkpt>
      <trkpt lat="48.41716" lon="-4.49698">
        <ele>67.708</ele>
        <time>2011-04-07T09:20:59Z</time>
      </trkpt>
      <trkpt lat="48.4169" lon="-4.49677">
        <ele>68.333</ele>
        <time>2011-04-07T09:21:10Z</time>
      </trkpt>
      <trkpt lat="48.4169" lon="-4.49677">
        <ele>68.556</ele>
        <time>2011-04-07T09:21:20Z</time>
      </trkpt>
      <trkpt lat="48.4169" lon="-4.49677">
        <ele>68.391</ele>
        <time>2011-04-07T09:21:31Z</time>
      </trkpt>
      <trkpt lat="48.41697" lon="-4.49683">
        <ele>68.107</ele>
        <time>2011-04-07T09:21:35Z</time>
      </trkpt>
      <trkpt lat="48.41745" lon="-4.49721">
        <ele>66.801</ele>
        <time>2011-04-07T09:21:46Z</time>
      </trkpt>
      <trkpt lat="48.41828" lon="-4.49787">
        <ele>67.201</ele>
        <time>2011-04-07T09:22:03Z</time>
      </trkpt>
      <trkpt lat="48.41845" lon="-4.49767">
        <ele>67.786</ele>
        <time>2011-04-07T09:22:09Z</time>
      </trkpt>
      <trkpt lat="48.41814" lon="-4.49775">
        <ele>64.731</ele>
        <time>2011-04-07T09:22:15Z</time>
      </trkpt>
      <trkpt lat="48.41805" lon="-4.49768">
        <ele>63.956</ele>
        <time>2011-04-07T09:22:17Z</time>
      </trkpt>
      <trkpt lat="48.41805" lon="-4.49664">
        <ele>62.386</ele>
        <time>2011-04-07T09:22:22Z</time>
      </trkpt>
      <trkpt lat="48.41787" lon="-4.49646">
        <ele>60.992</ele>
        <time>2011-04-07T09:22:25Z</time>
      </trkpt>
      <trkpt lat="48.41764" lon="-4.49623">
        <ele>60.333</ele>
        <time>2011-04-07T09:22:29Z</time>
      </trkpt>
      <trkpt lat="48.41745" lon="-4.49568">
        <ele>60.411</ele>
        <time>2011-04-07T09:22:36Z</time>
      </trkpt>
      <trkpt lat="48.41724" lon="-4.49509">
        <ele>58.646</ele>
        <time>2011-04-07T09:22:42Z</time>
      </trkpt>
      <trkpt lat="48.41723" lon="-4.49468">
        <ele>59.81</ele>
        <time>2011-04-07T09:22:47Z</time>
      </trkpt>
      <trkpt lat="48.4173" lon="-4.49431">
        <ele>62.17</ele>
        <time>2011-04-07T09:22:53Z</time>
      </trkpt>
      <trkpt lat="48.41722" lon="-4.49416">
        <ele>62.411</ele>
        <time>2011-04-07T09:23:04Z</time>
      </trkpt>
      <trkpt lat="48.41685" lon="-4.49374">
        <ele>64.998</ele>
        <time>2011-04-07T09:23:16Z</time>
      </trkpt>
      <trkpt lat="48.41648" lon="-4.49342">
        <ele>68.317</ele>
        <time>2011-04-07T09:23:27Z</time>
      </trkpt>
      <trkpt lat="48.4164" lon="-4.49336">
        <ele>68.468</ele>
        <time>2011-04-07T09:23:29Z</time>
      </trkpt>
      <trkpt lat="48.41592" lon="-4.493">
        <ele>72.407</ele>
        <time>2011-04-07T09:23:43Z</time>
      </trkpt>
      <trkpt lat="48.41572" lon="-4.49285">
        <ele>74.202</ele>
        <time>2011-04-07T09:23:54Z</time>
      </trkpt>
      <trkpt lat="48.41554" lon="-4.49249">
        <ele>75.938</ele>
        <time>2011-04-07T09:24:06Z</time>
      </trkpt>
      <trkpt lat="48.41547" lon="-4.49235">
        <ele>76.344</ele>
        <time>2011-04-07T09:24:25Z</time>
      </trkpt>
      <trkpt lat="48.41539" lon="-4.49212">
        <ele>76.688</ele>
        <time>2011-04-07T09:24:31Z</time>
      </trkpt>
      <trkpt lat="48.41472" lon="-4.49212">
        <ele>77.997</ele>
        <time>2011-04-07T09:24:44Z</time>
      </trkpt>
      <trkpt lat="48.41464" lon="-4.49212">
        <ele>77.98</ele>
        <time>2011-04-07T09:24:46Z</time>
      </trkpt>
      <trkpt lat="48.4145" lon="-4.49201">
        <ele>77.69</ele>
        <time>2011-04-07T09:24:50Z</time>
      </trkpt>
      <trkpt lat="48.4143" lon="-4.49168">
        <ele>77.366</ele>
        <time>2011-04-07T09:25:01Z</time>
      </trkpt>
      <trkpt lat="48.41388" lon="-4.49147">
        <ele>74.16</ele>
        <time>2011-04-07T09:25:11Z</time>
      </trkpt>
      <trkpt lat="48.4137" lon="-4.4914">
        <ele>73.253</ele>
        <time>2011-04-07T09:25:15Z</time>
      </trkpt>
      <trkpt lat="48.41325" lon="-4.49126">
        <ele>70.804</ele>
        <time>2011-04-07T09:25:24Z</time>
      </trkpt>
      <trkpt lat="48.41314" lon="-4.49122">
        <ele>69.884</ele>
        <time>2011-04-07T09:25:26Z</time>
      </trkpt>
      <trkpt lat="48.41271" lon="-4.49117">
        <ele>67.816</ele>
        <time>2011-04-07T09:25:32Z</time>
      </trkpt>
      <trkpt lat="48.41217" lon="-4.49109">
        <ele>64.961</ele>
        <time>2011-04-07T09:25:39Z</time>
      </trkpt>
      <trkpt lat="48.41142" lon="-4.491">
        <ele>61.417</ele>
        <time>2011-04-07T09:25:48Z</time>
      </trkpt>
      <trkpt lat="48.41134" lon="-4.49099">
        <ele>61.469</ele>
        <time>2011-04-07T09:25:49Z</time>
      </trkpt>
      <trkpt lat="48.41036" lon="-4.49091">
        <ele>58.359</ele>
        <time>2011-04-07T09:26:00Z</time>
      </trkpt>
      <trkpt lat="48.40886" lon="-4.49071">
        <ele>56.07</ele>
        <time>2011-04-07T09:26:19Z</time>
      </trkpt>
      <trkpt lat="48.4088" lon="-4.4907">
        <ele>55.444</ele>
        <time>2011-04-07T09:26:20Z</time>
      </trkpt>
      <trkpt lat="48.40833" lon="-4.49039">
        <ele>52.129</ele>
        <time>2011-04-07T09:26:26Z</time>
      </trkpt>
      <trkpt lat="48.4078" lon="-4.49004">
        <ele>48.909</ele>
        <time>2011-04-07T09:26:33Z</time>
      </trkpt>
      <trkpt lat="48.40773" lon="-4.49">
        <ele>48.67</ele>
        <time>2011-04-07T09:26:34Z</time>
      </trkpt>
      <trkpt lat="48.40745" lon="-4.48981">
        <ele>46.305</ele>
        <time>2011-04-07T09:26:38Z</time>
      </trkpt>
      <trkpt lat="48.40698" lon="-4.48948">
        <ele>42.469</ele>
        <time>2011-04-07T09:26:44Z</time>
      </trkpt>
      <trkpt lat="48.40654" lon="-4.48915">
        <ele>39.317</ele>
        <time>2011-04-07T09:26:49Z</time>
      </trkpt>
      <trkpt lat="48.40619" lon="-4.48916">
        <ele>38.532</ele>
        <time>2011-04-07T09:26:53Z</time>
      </trkpt>
      <trkpt lat="48.40576" lon="-4.48916">
        <ele>37.521</ele>
        <time>2011-04-07T09:26:58Z</time>
      </trkpt>
      <trkpt lat="48.40511" lon="-4.48907">
        <ele>34.524</ele>
        <time>2011-04-07T09:27:06Z</time>
      </trkpt>
      <trkpt lat="48.40485" lon="-4.48907">
        <ele>33.291</ele>
        <time>2011-04-07T09:27:09Z</time>
      </trkpt>
      <trkpt lat="48.40432" lon="-4.48907">
        <ele>30.244</ele>
        <time>2011-04-07T09:27:18Z</time>
      </trkpt>
      <trkpt lat="48.40417" lon="-4.48907">
        <ele>29.14</ele>
        <time>2011-04-07T09:27:21Z</time>
      </trkpt>
      <trkpt lat="48.40396" lon="-4.48907">
        <ele>27.46</ele>
        <time>2011-04-07T09:27:26Z</time>
      </trkpt>
      <trkpt lat="48.40396" lon="-4.48907">
        <ele>26.442</ele>
        <time>2011-04-07T09:27:29Z</time>
      </trkpt>
      <trkpt lat="48.40348" lon="-4.48895">
        <ele>26.766</ele>
        <time>2011-04-07T09:27:34Z</time>
      </trkpt>
      <trkpt lat="48.40333" lon="-4.48891">
        <ele>26.786</ele>
        <time>2011-04-07T09:27:37Z</time>
      </trkpt>
      <trkpt lat="48.403" lon="-4.48869">
        <ele>26.813</ele>
        <time>2011-04-07T09:27:43Z</time>
      </trkpt>
      <trkpt lat="48.40275" lon="-4.48859">
        <ele>26.357</ele>
        <time>2011-04-07T09:27:47Z</time>
      </trkpt>
      <trkpt lat="48.40249" lon="-4.48859">
        <ele>26.109</ele>
        <time>2011-04-07T09:27:51Z</time>
      </trkpt>
      <trkpt lat="48.40224" lon="-4.48865">
        <ele>25.683</ele>
        <time>2011-04-07T09:27:55Z</time>
      </trkpt>
      <trkpt lat="48.40171" lon="-4.48939">
        <ele>26.532</ele>
        <time>2011-04-07T09:28:06Z</time>
      </trkpt>
      <trkpt lat="48.40061" lon="-4.48999">
        <ele>22.594</ele>
        <time>2011-04-07T09:28:24Z</time>
      </trkpt>
      <trkpt lat="48.40019" lon="-4.49023">
        <ele>22.979</ele>
        <time>2011-04-07T09:28:33Z</time>
      </trkpt>
      <trkpt lat="48.39961" lon="-4.49097">
        <ele>19.645</ele>
        <time>2011-04-07T09:28:47Z</time>
      </trkpt>
      <trkpt lat="48.39952" lon="-4.49109">
        <ele>19.582</ele>
        <time>2011-04-07T09:28:49Z</time>
      </trkpt>
      <trkpt lat="48.39941" lon="-4.49122">
        <ele>19.621</ele>
        <time>2011-04-07T09:28:53Z</time>
      </trkpt>
      <trkpt lat="48.39941" lon="-4.49122">
        <ele>19.652</ele>
        <time>2011-04-07T09:28:55Z</time>
      </trkpt>
      <trkpt lat="48.39911" lon="-4.49135">
        <ele>18.803</ele>
        <time>2011-04-07T09:28:59Z</time>
      </trkpt>
      <trkpt lat="48.39882" lon="-4.49093">
        <ele>16.673</ele>
        <time>2011-04-07T09:29:05Z</time>
      </trkpt>
      <trkpt lat="48.39819" lon="-4.49063">
        <ele>13.395</ele>
        <time>2011-04-07T09:29:14Z</time>
      </trkpt>
      <trkpt lat="48.3981" lon="-4.49062">
        <ele>12.56</ele>
        <time>2011-04-07T09:29:15Z</time>
      </trkpt>
      <trkpt lat="48.39746" lon="-4.49086">
        <ele>9.263</ele>
        <time>2011-04-07T09:29:23Z</time>
      </trkpt>
      <trkpt lat="48.3974" lon="-4.49094">
        <ele>8.835</ele>
        <time>2011-04-07T09:29:24Z</time>
      </trkpt>
      <trkpt lat="48.39665" lon="-4.49207">
        <ele>8.23</ele>
        <time>2011-04-07T09:29:38Z</time>
      </trkpt>
      <trkpt lat="48.39595" lon="-4.49291">
        <ele>10.313</ele>
        <time>2011-04-07T09:29:52Z</time>
      </trkpt>
      <trkpt lat="48.39589" lon="-4.49302">
        <ele>11.534</ele>
        <time>2011-04-07T09:29:55Z</time>
      </trkpt>
      <trkpt lat="48.39555" lon="-4.49365">
        <ele>14.691</ele>
        <time>2011-04-07T09:30:05Z</time>
      </trkpt>
      <trkpt lat="48.39553" lon="-4.4937">
        <ele>14.846</ele>
        <time>2011-04-07T09:30:06Z</time>
      </trkpt>
      <trkpt lat="48.39522" lon="-4.49424">
        <ele>18.011</ele>
        <time>2011-04-07T09:30:18Z</time>
      </trkpt>
      <trkpt lat="48.39493" lon="-4.49472">
        <ele>21.044</ele>
        <time>2011-04-07T09:30:29Z</time>
      </trkpt>
      <trkpt lat="48.39485" lon="-4.49486">
        <ele>21.522</ele>
        <time>2011-04-07T09:30:32Z</time>
      </trkpt>
      <trkpt lat="48.39475" lon="-4.49503">
        <ele>22.704</ele>
        <time>2011-04-07T09:30:36Z</time>
      </trkpt>
      <trkpt lat="48.39466" lon="-4.49517">
        <ele>23.688</ele>
        <time>2011-04-07T09:30:39Z</time>
      </trkpt>
      <trkpt lat="48.39429" lon="-4.4958">
        <ele>27.164</ele>
        <time>2011-04-07T09:30:53Z</time>
      </trkpt>
      <trkpt lat="48.39377" lon="-4.49669">
        <ele>29.054</ele>
        <time>2011-04-07T09:31:14Z</time>
      </trkpt>
      <trkpt lat="48.39349" lon="-4.49719">
        <ele>29.163</ele>
        <time>2011-04-07T09:31:23Z</time>
      </trkpt>
      <trkpt lat="48.39326" lon="-4.49822">
        <ele>27.812</ele>
        <time>2011-04-07T09:31:35Z</time>
      </trkpt>
      <trkpt lat="48.39287" lon="-4.4986">
        <ele>27.182</ele>
        <time>2011-04-07T09:31:43Z</time>
      </trkpt>
      <trkpt lat="48.39263" lon="-4.49843">
        <ele>25.973</ele>
        <time>2011-04-07T09:31:49Z</time>
      </trkpt>
      <trkpt lat="48.39195" lon="-4.49666">
        <ele>27.857</ele>
        <time>2011-04-07T09:32:09Z</time>
      </trkpt>
      <trkpt lat="48.39139" lon="-4.49517">
        <ele>28.778</ele>
        <time>2011-04-07T09:32:29Z</time>
      </trkpt>
      <trkpt lat="48.39126" lon="-4.49489">
        <ele>28.968</ele>
        <time>2011-04-07T09:32:33Z</time>
      </trkpt>
      <trkpt lat="48.39037" lon="-4.49344">
        <ele>30.983</ele>
        <time>2011-04-07T09:32:55Z</time>
      </trkpt>
      <trkpt lat="48.39013" lon="-4.49334">
        <ele>30.285</ele>
        <time>2011-04-07T09:32:59Z</time>
      </trkpt>
      <trkpt lat="48.38877" lon="-4.49318">
        <ele>28.456</ele>
        <time>2011-04-07T09:33:19Z</time>
      </trkpt>
      <trkpt lat="48.38776" lon="-4.49315">
        <ele>27.531</ele>
        <time>2011-04-07T09:33:33Z</time>
      </trkpt>
      <trkpt lat="48.38761" lon="-4.49315">
        <ele>26.952</ele>
        <time>2011-04-07T09:33:37Z</time>
      </trkpt>
      <trkpt lat="48.38678" lon="-4.4931">
        <ele>26.366</ele>
        <time>2011-04-07T09:33:48Z</time>
      </trkpt>
      <trkpt lat="48.38655" lon="-4.49308">
        <ele>26.559</ele>
        <time>2011-04-07T09:33:52Z</time>
      </trkpt>
      <trkpt lat="48.38621" lon="-4.49304">
        <ele>27.268</ele>
        <time>2011-04-07T09:34:02Z</time>
      </trkpt>
      <trkpt lat="48.38602" lon="-4.49302">
        <ele>26.982</ele>
        <time>2011-04-07T09:34:07Z</time>
      </trkpt>
      <trkpt lat="48.38585" lon="-4.49323">
        <ele>26.303</ele>
        <time>2011-04-07T09:34:11Z</time>
      </trkpt>
      <trkpt lat="48.38502" lon="-4.49427">
        <ele>24.243</ele>
        <time>2011-04-07T09:34:28Z</time>
      </trkpt>
      <trkpt lat="48.38493" lon="-4.49436">
        <ele>24.009</ele>
        <time>2011-04-07T09:34:30Z</time>
      </trkpt>
      <trkpt lat="48.3847" lon="-4.49442">
        <ele>24.911</ele>
        <time>2011-04-07T09:34:36Z</time>
      </trkpt>
      <trkpt lat="48.3846" lon="-4.49435">
        <ele>25.107</ele>
        <time>2011-04-07T09:34:41Z</time>
      </trkpt>
      <trkpt lat="48.38443" lon="-4.49501">
        <ele>23.747</ele>
        <time>2011-04-07T09:34:51Z</time>
      </trkpt>
      <trkpt lat="48.38439" lon="-4.49534">
        <ele>23.751</ele>
        <time>2011-04-07T09:34:57Z</time>
      </trkpt>
      <trkpt lat="48.38432" lon="-4.49629">
        <ele>23.461</ele>
        <time>2011-04-07T09:35:05Z</time>
      </trkpt>
      <trkpt lat="48.38419" lon="-4.49772">
        <ele>23.125</ele>
        <time>2011-04-07T09:35:20Z</time>
      </trkpt>
      <trkpt lat="48.38413" lon="-4.49869">
        <ele>19.11</ele>
        <time>2011-04-07T09:35:30Z</time>
      </trkpt>
      <trkpt lat="48.38432" lon="-4.49968">
        <ele>18.661</ele>
        <time>2011-04-07T09:35:37Z</time>
      </trkpt>
      <trkpt lat="48.38412" lon="-4.49998">
        <ele>19.811</ele>
        <time>2011-04-07T09:35:45Z</time>
      </trkpt>
      <trkpt lat="48.38412" lon="-4.49998">
        <ele>19.83</ele>
        <time>2011-04-07T09:36:00Z</time>
      </trkpt>
      <trkpt lat="48.38426" lon="-4.50015">
        <ele>19.162</ele>
        <time>2011-04-07T09:36:12Z</time>
      </trkpt>
      <trkpt lat="48.3842" lon="-4.50147">
        <ele>22.202</ele>
        <time>2011-04-07T09:36:27Z</time>
      </trkpt>
      <trkpt lat="48.38417" lon="-4.50172">
        <ele>23.768</ele>
        <time>2011-04-07T09:36:31Z</time>
      </trkpt>
      <trkpt lat="48.38414" lon="-4.502">
        <ele>25.457</ele>
        <time>2011-04-07T09:36:36Z</time>
      </trkpt>
      <trkpt lat="48.3841" lon="-4.50239">
        <ele>27.878</ele>
        <time>2011-04-07T09:36:43Z</time>
      </trkpt>
      <trkpt lat="48.38405" lon="-4.50316">
        <ele>31.008</ele>
        <time>2011-04-07T09:36:59Z</time>
      </trkpt>
      <trkpt lat="48.38403" lon="-4.50339">
        <ele>32.093</ele>
        <time>2011-04-07T09:37:13Z</time>
      </trkpt>
      <trkpt lat="48.38401" lon="-4.50373">
        <ele>32.914</ele>
        <time>2011-04-07T09:37:27Z</time>
      </trkpt>
      <trkpt lat="48.38394" lon="-4.50462">
        <ele>34.668</ele>
        <time>2011-04-07T09:37:42Z</time>
      </trkpt>
      <trkpt lat="48.38385" lon="-4.50519">
        <ele>37.377</ele>
        <time>2011-04-07T09:37:51Z</time>
      </trkpt>
      <trkpt lat="48.3836" lon="-4.50524">
        <ele>37.54</ele>
        <time>2011-04-07T09:37:56Z</time>
      </trkpt>
      <trkpt lat="48.38336" lon="-4.50472">
        <ele>40.312</ele>
        <time>2011-04-07T09:38:09Z</time>
      </trkpt>
      <trkpt lat="48.38303" lon="-4.50452">
        <ele>42.408</ele>
        <time>2011-04-07T09:38:24Z</time>
      </trkpt>
      <trkpt lat="48.3825" lon="-4.50425">
        <ele>43.583</ele>
        <time>2011-04-07T09:38:42Z</time>
      </trkpt>
      <trkpt lat="48.38245" lon="-4.5042">
        <ele>43.9</ele>
        <time>2011-04-07T09:38:45Z</time>
      </trkpt>
      <trkpt lat="48.38245" lon="-4.50442">
        <ele>44.151</ele>
        <time>2011-04-07T09:38:51Z</time>
      </trkpt>
      <trkpt lat="48.38248" lon="-4.50462">
        <ele>44.268</ele>
        <time>2011-04-07T09:38:55Z</time>
      </trkpt>
      <trkpt lat="48.38251" lon="-4.5048">
        <ele>44.37</ele>
        <time>2011-04-07T09:38:58Z</time>
      </trkpt>
      <trkpt lat="48.38266" lon="-4.5059">
        <ele>47.673</ele>
        <time>2011-04-07T09:39:16Z</time>
      </trkpt>
      <trkpt lat="48.38269" lon="-4.5062">
        <ele>49.099</ele>
        <time>2011-04-07T09:39:26Z</time>
      </trkpt>
    </trkseg>
  </trk>
</gpx>